createdAt,value
2022-12-01T00:01:47.693Z,61.10
2022-12-01T00:11:50.688Z,54.57
2022-12-01T00:21:55.276Z,64.40
2022-12-01T00:31:58.798Z,60.90
2022-12-01T00:42:03.284Z,63.83
2022-12-01T00:52:07.545Z,67.72
2022-12-01T01:02:12.039Z,81.53
2022-12-01T01:12:15.036Z,77.53
2022-12-01T01:22:19.410Z,80.80
2022-12-01T01:32:22.366Z,62.57
2022-12-01T01:42:26.585Z,80.35
2022-12-01T01:52:29.633Z,59.87
2022-12-01T02:02:34.728Z,74.38
2022-12-01T02:13:01.901Z,77.78
2022-12-01T02:23:33.064Z,79.05
2022-12-01T02:33:42.084Z,74.50
2022-12-01T02:43:54.210Z,82.68
2022-12-01T02:54:00.651Z,89.10
2022-12-01T03:04:33.955Z,78.53
2022-12-01T03:14:46.682Z,76.45
2022-12-01T03:24:52.959Z,81.00
2022-12-01T03:35:00.641Z,79.32
2022-12-01T03:45:08.285Z,81.85
2022-12-01T03:55:16.346Z,73.63
2022-12-01T04:05:24.998Z,71.80
2022-12-01T04:15:29.840Z,72.30
2022-12-01T04:25:32.757Z,74.33
2022-12-01T04:35:37.153Z,78.38
2022-12-01T04:45:40.110Z,72.23
2022-12-01T04:55:44.407Z,74.47
2022-12-01T05:05:47.413Z,73.43
2022-12-01T05:15:51.839Z,73.57
2022-12-01T05:25:55.532Z,71.90
2022-12-01T05:35:59.863Z,78.00
2022-12-01T05:46:03.145Z,62.67
2022-12-01T05:56:09.149Z,76.93
2022-12-01T06:06:12.266Z,75.60
2022-12-01T06:16:16.645Z,72.55
2022-12-01T06:26:19.731Z,79.13
2022-12-01T06:36:24.080Z,79.82
2022-12-01T06:46:27.025Z,76.77
2022-12-01T06:56:31.446Z,74.00
2022-12-01T07:06:34.895Z,75.63
2022-12-01T07:16:39.201Z,70.75
2022-12-01T07:26:42.822Z,75.20
2022-12-01T07:36:47.163Z,72.60
2022-12-01T07:46:50.435Z,69.03
2022-12-01T07:56:54.759Z,75.32
2022-12-01T08:06:57.809Z,63.80
2022-12-01T08:17:02.165Z,72.60
2022-12-01T08:27:05.505Z,49.03
2022-12-01T08:37:10.076Z,64.70
2022-12-01T08:47:18.489Z,67.00
2022-12-01T08:57:23.106Z,73.55
2022-12-01T09:07:26.902Z,67.93
2022-12-01T09:17:31.393Z,64.43
2022-12-01T09:27:34.352Z,63.43
2022-12-01T09:37:38.682Z,66.55
2022-12-01T09:47:42.675Z,61.60
2022-12-01T09:57:49.126Z,64.20
2022-12-01T10:07:56.933Z,67.72
2022-12-01T10:18:18.630Z,72.20
2022-12-01T10:28:51.585Z,72.53
2022-12-01T10:38:56.241Z,73.90
2022-12-01T10:49:01.144Z,71.78
2022-12-01T10:59:23.484Z,75.32
2022-12-01T11:09:29.162Z,67.38
2022-12-01T11:19:35.664Z,66.45
2022-12-01T11:29:40.881Z,68.03
2022-12-01T11:39:47.789Z,69.93
2022-12-01T11:49:54.945Z,71.97
2022-12-01T11:59:59.270Z,69.32
2022-12-01T12:10:17.635Z,61.53
2022-12-01T12:20:35.741Z,66.35
2022-12-01T12:30:49.015Z,63.42
2022-12-01T12:40:57.217Z,57.00
2022-12-01T12:51:11.454Z,51.95
2022-12-01T13:01:22.299Z,57.43
2022-12-01T13:11:30.547Z,57.72
2022-12-01T13:21:43.128Z,58.10
2022-12-01T13:31:48.745Z,55.30
2022-12-01T13:42:06.245Z,58.25
2022-12-01T13:52:33.752Z,58.20
2022-12-01T14:02:38.518Z,55.63
2022-12-01T14:12:46.776Z,55.13
2022-12-01T14:23:05.728Z,55.28
2022-12-01T14:33:53.779Z,56.13
2022-12-01T14:44:05.964Z,55.78
2022-12-01T14:54:18.493Z,64.80
2022-12-01T15:04:23.062Z,67.03
2022-12-01T15:14:33.195Z,62.90
2022-12-01T15:24:37.733Z,67.78
2022-12-01T15:34:43.268Z,67.77
2022-12-01T15:45:00.585Z,69.57
2022-12-01T15:55:06.940Z,67.45
2022-12-01T16:05:28.062Z,70.00
2022-12-01T16:15:31.042Z,68.65
2022-12-01T16:25:38.105Z,73.63
2022-12-01T16:35:41.121Z,70.38
2022-12-01T16:45:46.876Z,73.60
2022-12-01T16:55:54.281Z,69.97
2022-12-01T17:06:01.238Z,71.45
2022-12-01T17:16:07.080Z,74.47
2022-12-01T17:26:14.052Z,73.55
2022-12-01T17:36:17.820Z,76.78
2022-12-01T17:46:22.264Z,73.20
2022-12-01T17:56:25.268Z,77.40
2022-12-01T18:06:29.817Z,79.20
2022-12-01T18:16:33.591Z,83.80
2022-12-01T18:26:39.816Z,84.40
2022-12-01T18:36:43.035Z,82.65
2022-12-01T18:46:47.707Z,83.65
2022-12-01T18:56:53.431Z,84.45
2022-12-01T19:06:57.845Z,84.72
2022-12-01T19:17:00.877Z,84.77
2022-12-01T19:27:05.591Z,87.00
2022-12-01T19:37:08.565Z,89.03
2022-12-01T19:47:14.680Z,86.25
2022-12-01T19:57:20.697Z,90.68
2022-12-01T20:07:25.139Z,87.03
2022-12-01T20:17:28.569Z,82.50
2022-12-01T20:27:33.250Z,87.05
2022-12-01T20:37:36.293Z,87.78
2022-12-01T20:47:41.973Z,82.38
2022-12-01T20:57:45.042Z,79.05
2022-12-01T21:07:49.646Z,78.05
2022-12-01T21:17:57.448Z,82.43
2022-12-01T21:28:19.202Z,76.97
2022-12-01T21:38:22.409Z,84.60
2022-12-01T21:48:30.945Z,88.45
2022-12-01T21:58:37.433Z,99.35
2022-12-01T22:08:46.455Z,101.05
2022-12-01T22:18:52.713Z,104.45
2022-12-01T22:29:00.245Z,104.25
2022-12-01T22:39:10.934Z,97.05
2022-12-01T22:49:22.278Z,99.93
2022-12-01T22:59:30.643Z,112.60
2022-12-01T23:09:37.996Z,110.22
2022-12-01T23:19:40.885Z,117.22
2022-12-01T23:29:45.424Z,120.28
2022-12-01T23:39:48.521Z,132.17
2022-12-01T23:49:59.207Z,123.78
